Terminal Aerodrome Forecast
Issued by NWS

Home | Current Version | Previous Version | Text Only | Print | Product List | Glossary On
Versions: 1 2 3 4 5 6 7 8 9 10 11 12 13 14 15 16 17 18 19 20 21 22 23
000
FTUS44 KEWX 182300
TAFSSF
TAF
KSSF 182339Z 1900/1924 09009KT P6SM BKN050 BKN200
     FM190800 13003KT 4SM BR OVC015
     FM191500 13007KT P6SM OVC028
     FM191800 13009KT P6SM BKN040=

USA.gov is the U.S. government's official web portal to all federal, state and local government web resources and services.